Time;durP1;ratioP1;P1;durP2;ratioP2;P2;SDS_P1;SDS_P2;PMS_P1;PMS_P2;Temp;Humidity;BMP_temperature;BMP_pressure;BME280_temperature;BME280_humidity;BME280_pressure;Samples;Min_cycle;Max_cycle;Signal;HPM_P1;HPM_P2
2022/01/28 00:05:13;;;;;;;4.13;2.63;;;-0.70;99.90;;;;;;5054181;28;20037;-73
2022/01/28 00:07:38;;;;;;;3.53;2.50;;;-0.70;99.90;;;;;;5054007;28;20082;-73
2022/01/28 00:10:05;;;;;;;3.33;2.30;;;-0.80;99.90;;;;;;5053837;28;20033;-73
2022/01/28 00:12:32;;;;;;;3.45;2.20;;;-0.90;99.90;;;;;;5053881;28;20104;-73
2022/01/28 00:15:10;;;;;;;3.42;1.92;;;-0.90;99.90;;;;;;5054065;28;20380;-73
2022/01/28 00:37:25;;;;;;;2.20;1.70;;;-1.20;99.90;;;;;;5053577;28;20028;-73
2022/01/28 00:39:13;;;;;;;2.10;1.77;;;-1.20;99.90;;;;;;5006074;28;20054;-73
2022/01/28 00:41:39;;;;;;;2.85;1.60;;;-1.30;99.90;;;;;;5013417;28;20060;-72
2022/01/28 00:44:05;;;;;;;1.52;1.42;;;-1.30;99.90;;;;;;5013447;28;20087;-73
2022/01/28 00:46:31;;;;;;;1.40;1.30;;;-1.30;99.90;;;;;;5013643;28;20156;-73
2022/01/28 00:48:57;;;;;;;1.92;1.40;;;-1.40;99.90;;;;;;5013480;28;20513;-73
2022/01/28 00:51:23;;;;;;;1.88;1.60;;;-1.40;99.90;;;;;;5013620;28;20034;-73
2022/01/28 00:53:49;;;;;;;1.83;1.50;;;-1.40;99.90;;;;;;5012110;28;20029;-73
2022/01/28 00:56:16;;;;;;;1.15;1.00;;;-1.40;99.90;;;;;;5013448;28;20038;-73
2022/01/28 00:58:41;;;;;;;1.50;1.40;;;-1.40;99.90;;;;;;5013113;28;20026;-73
2022/01/28 01:01:07;;;;;;;1.08;1.08;;;-1.60;99.90;;;;;;5013311;28;20026;-73
2022/01/28 01:03:33;;;;;;;1.20;1.10;;;-1.70;99.90;;;;;;5012930;28;20022;-73
2022/01/28 01:05:59;;;;;;;2.03;1.20;;;-1.70;99.90;;;;;;5013204;28;20158;-73
2022/01/28 01:08:24;;;;;;;1.60;1.27;;;-1.60;99.90;;;;;;5013068;28;20064;-73
2022/01/28 01:10:52;;;;;;;1.55;1.20;;;-1.70;99.90;;;;;;5012999;28;20052;-72
2022/01/28 01:13:18;;;;;;;1.30;1.20;;;-1.70;99.90;;;;;;5012940;28;20409;-71
2022/01/28 01:15:48;;;;;;;1.40;1.30;;;-1.80;99.90;;;;;;5012846;28;20025;-72
2022/01/28 01:21:08;;;;;;;1.33;1.23;;;-1.80;99.90;;;;;;5012688;28;20107;-72
2022/01/28 01:23:32;;;;;;;2.50;1.35;;;-1.70;99.90;;;;;;5012486;28;20030;-72
2022/01/28 01:28:36;;;;;;;3.20;1.20;;;-1.80;99.90;;;;;;5012970;28;20112;-72
2022/01/28 01:31:04;;;;;;;1.38;1.27;;;-1.80;99.90;;;;;;5012786;28;20430;-72
2022/01/28 01:33:35;;;;;;;1.20;1.10;;;-1.80;99.90;;;;;;5012557;28;20022;-72
2022/01/28 01:36:02;;;;;;;1.10;1.05;;;-1.80;99.90;;;;;;5012617;28;20028;-72
2022/01/28 01:38:32;;;;;;;1.52;1.20;;;-1.80;99.90;;;;;;5036874;28;20045;-72
2022/01/28 01:41:01;;;;;;;2.33;1.10;;;-1.70;99.90;;;;;;5052228;28;20029;-71
2022/01/28 01:54:11;;;;;;;1.52;1.08;;;-2.00;99.90;;;;;;5051995;28;20042;-72
2022/01/28 01:56:38;;;;;;;1.23;1.10;;;-2.10;99.90;;;;;;5051839;28;20029;-72
2022/01/28 01:59:04;;;;;;;1.15;1.10;;;-2.00;99.90;;;;;;5051860;28;20059;-72
2022/01/28 02:01:30;;;;;;;1.20;1.10;;;-2.00;99.90;;;;;;5051906;28;20036;-72
2022/01/28 02:03:57;;;;;;;1.00;0.90;;;-2.00;99.90;;;;;;5051761;28;20086;-73
2022/01/28 02:06:23;;;;;;;0.95;0.90;;;-2.00;99.90;;;;;;5051910;28;20021;-73
2022/01/28 02:08:49;;;;;;;1.00;1.00;;;-2.00;99.90;;;;;;5051712;28;20052;-73
2022/01/28 02:11:15;;;;;;;1.00;0.93;;;-2.00;99.90;;;;;;5052222;28;20151;-73
2022/01/28 02:13:45;;;;;;;1.40;1.00;;;-2.00;99.90;;;;;;5051778;28;20109;-73
2022/01/28 02:16:11;;;;;;;1.08;1.08;;;-2.00;99.90;;;;;;5051830;28;20173;-73
2022/01/28 02:18:37;;;;;;;1.00;1.00;;;-2.00;99.90;;;;;;5050834;28;20483;-73
2022/01/28 02:21:06;;;;;;;0.90;0.90;;;-2.00;99.90;;;;;;5045274;28;20025;-73
2022/01/28 02:23:33;;;;;;;1.17;1.03;;;-2.00;99.90;;;;;;5051670;28;20032;-73
2022/01/28 02:55:09;;;;;;;1.63;1.00;;;-2.20;99.90;;;;;;5050799;28;20118;-72
2022/01/28 02:57:38;;;;;;;1.15;1.02;;;-2.20;99.90;;;;;;5067952;28;20029;-72
2022/01/28 03:00:05;;;;;;;1.30;0.80;;;-2.30;99.90;;;;;;5052412;28;20036;-72
2022/01/28 03:02:30;;;;;;;0.95;0.85;;;-2.20;99.90;;;;;;5051517;28;20025;-73
2022/01/28 03:38:07;;;;;;;1.00;1.00;;;-2.30;99.90;;;;;;5346485;22;20080;-78
2022/01/28 03:40:36;;;;;;;1.33;1.15;;;-2.20;99.90;;;;;;5053399;28;20044;-78
2022/01/28 03:43:05;;;;;;;1.35;1.10;;;-2.20;99.90;;;;;;5054524;28;20051;-78
2022/01/28 03:45:31;;;;;;;0.90;0.90;;;-2.20;99.90;;;;;;5054569;28;20028;-78
2022/01/28 03:47:57;;;;;;;2.40;1.10;;;-2.20;99.90;;;;;;5054410;28;20017;-78
2022/01/28 03:50:23;;;;;;;0.82;0.82;;;-2.10;99.90;;;;;;5054672;28;20021;-80
2022/01/28 03:52:48;;;;;;;1.10;1.10;;;-2.10;99.90;;;;;;5054529;28;20021;-80
2022/01/28 03:55:15;;;;;;;1.13;1.02;;;-2.00;99.90;;;;;;5053198;28;20033;-80
2022/01/28 03:57:41;;;;;;;1.25;0.80;;;-2.00;99.90;;;;;;5054482;28;20047;-84
2022/01/28 04:00:08;;;;;;;2.00;1.10;;;-1.90;99.90;;;;;;5054364;28;20515;-85
2022/01/28 04:02:37;;;;;;;2.80;0.95;;;-1.90;99.90;;;;;;5054679;28;20025;-85
2022/01/28 04:13:06;;;;;;;1.65;0.90;;;-1.80;99.90;;;;;;5037828;28;20061;-84
2022/01/28 04:18:00;;;;;;;3.35;0.90;;;-1.80;99.90;;;;;;5053981;28;20048;-80
2022/01/28 04:20:26;;;;;;;1.60;1.45;;;-1.80;99.90;;;;;;5053984;28;20484;-79
2022/01/28 04:22:52;;;;;;;1.27;0.80;;;-1.80;99.90;;;;;;5053783;28;20079;-79
2022/01/28 04:25:17;;;;;;;0.70;0.70;;;-1.80;99.90;;;;;;5054223;28;20059;-79
2022/01/28 04:27:43;;;;;;;0.90;0.90;;;-1.70;99.90;;;;;;5053998;28;20032;-79
2022/01/28 04:30:09;;;;;;;0.88;0.82;;;-1.70;99.90;;;;;;5052606;28;20029;-79
2022/01/28 04:32:37;;;;;;;1.67;1.40;;;-1.70;99.90;;;;;;5053787;28;20031;-79
2022/01/28 04:35:03;;;;;;;0.90;0.90;;;-1.60;99.90;;;;;;5052469;28;20126;-79
2022/01/28 04:37:38;;;;;;;1.63;1.00;;;-1.60;99.90;;;;;;5051508;28;20454;-79
2022/01/28 04:40:19;;;;;;;1.05;0.90;;;-1.60;99.90;;;;;;5053511;28;20037;-79
2022/01/28 04:45:45;;;;;;;2.15;0.90;;;-1.60;99.90;;;;;;5053564;28;20522;-79
2022/01/28 04:48:26;;;;;;;1.25;1.05;;;-1.60;99.90;;;;;;5053600;28;20112;-79
2022/01/28 04:59:07;;;;;;;1.52;1.25;;;-1.60;99.90;;;;;;5053741;28;20025;-82
2022/01/28 05:16:46;;;;;;;1.95;0.95;;;-1.70;99.90;;;;;;5053182;28;20027;-78
2022/01/28 05:27:07;;;;;;;2.25;0.90;;;-1.50;99.90;;;;;;5052850;28;20467;-81
2022/01/28 05:29:32;;;;;;;1.90;0.97;;;-1.50;99.90;;;;;;5052650;28;20036;-78
2022/01/28 05:31:58;;;;;;;0.82;0.82;;;-1.50;99.90;;;;;;5052714;28;20611;-84
2022/01/28 05:34:26;;;;;;;2.42;1.10;;;-1.50;99.90;;;;;;5052821;28;20021;-78
2022/01/28 05:36:52;;;;;;;0.75;0.75;;;-1.50;99.90;;;;;;5052402;28;20430;-74
2022/01/28 05:39:19;;;;;;;2.08;1.10;;;-1.50;99.90;;;;;;5052046;28;20029;-75
2022/01/28 05:41:45;;;;;;;0.70;0.70;;;-1.40;99.90;;;;;;5052188;28;20510;-70
2022/01/28 05:44:10;;;;;;;1.02;0.90;;;0.20;99.90;;;;;;5052055;28;20108;-81
2022/01/28 05:46:36;;;;;;;1.15;0.88;;;1.60;99.90;;;;;;5059173;28;20029;-76
2022/01/28 05:49:02;;;;;;;2.40;0.80;;;1.00;99.90;;;;;;5071020;28;20032;-71
2022/01/28 05:51:28;;;;;;;0.70;0.70;;;0.40;99.90;;;;;;5065490;28;20031;-71
2022/01/28 05:53:57;;;;;;;1.05;0.73;;;-0.10;99.90;;;;;;5068471;28;20029;-75
2022/01/28 05:56:26;;;;;;;1.50;0.70;;;-0.40;99.90;;;;;;5071112;28;20533;-71
2022/01/28 05:58:52;;;;;;;1.10;0.80;;;-0.60;99.90;;;;;;5060895;28;20033;-72
2022/01/28 06:01:18;;;;;;;2.67;1.10;;;-0.70;99.90;;;;;;5066105;28;20020;-74
2022/01/28 06:03:44;;;;;;;1.48;0.70;;;-0.80;99.90;;;;;;5071404;28;20471;-70
2022/01/28 06:06:21;;;;;;;3.67;1.08;;;-0.90;99.90;;;;;;5071222;28;20066;-82
2022/01/28 06:08:49;;;;;;;1.05;0.80;;;-1.00;99.90;;;;;;5068896;28;20104;-82
2022/01/28 06:11:15;;;;;;;2.92;0.80;;;-1.10;99.90;;;;;;5065854;28;20499;-82
2022/01/28 06:13:41;;;;;;;4.45;0.90;;;-1.10;99.90;;;;;;5071160;28;20024;-83
2022/01/28 06:16:07;;;;;;;1.20;0.75;;;-1.20;99.90;;;;;;5071499;28;20043;-82
2022/01/28 06:18:33;;;;;;;1.25;0.80;;;-1.20;99.90;;;;;;5071755;28;20020;-83
2022/01/28 06:20:58;;;;;;;2.10;0.90;;;-1.30;99.90;;;;;;5071506;28;20029;-84
2022/01/28 06:23:24;;;;;;;2.70;0.90;;;-1.30;99.90;;;;;;5072127;28;20027;-81
2022/01/28 06:25:50;;;;;;;2.78;0.77;;;-1.30;99.90;;;;;;5072000;28;20138;-66
2022/01/28 06:28:16;;;;;;;1.95;0.90;;;-1.20;99.90;;;;;;5071523;28;20028;-67
2022/01/28 06:30:42;;;;;;;2.38;1.13;;;0.10;99.90;;;;;;5071730;28;20356;-67
2022/01/28 06:33:11;;;;;;;2.30;1.45;;;1.30;99.90;;;;;;5071662;28;20503;-79
2022/01/28 06:35:37;;;;;;;2.40;0.90;;;1.20;99.90;;;;;;5072033;28;20099;-78
2022/01/28 06:38:02;;;;;;;1.17;0.80;;;0.40;99.90;;;;;;5071406;28;20132;-79
2022/01/28 06:40:28;;;;;;;1.85;0.93;;;-0.20;99.90;;;;;;5070456;28;20029;-81
2022/01/28 06:42:54;;;;;;;1.35;0.80;;;-0.60;99.90;;;;;;5070266;28;20035;-81
2022/01/28 06:45:20;;;;;;;1.63;0.85;;;-0.70;99.90;;;;;;5071396;28;20031;-71
2022/01/28 06:47:45;;;;;;;3.47;0.80;;;-0.80;99.90;;;;;;5070025;28;20031;-69
2022/01/28 06:50:11;;;;;;;2.92;1.10;;;-0.90;99.90;;;;;;5071206;28;20024;-74
2022/01/28 06:52:38;;;;;;;3.35;1.23;;;-1.00;99.90;;;;;;5071269;28;20452;-73
2022/01/28 06:55:05;;;;;;;2.05;0.90;;;-1.00;99.90;;;;;;5071261;28;20403;-73
2022/01/28 06:57:31;;;;;;;1.33;0.93;;;-1.00;99.90;;;;;;5069975;28;20493;-74
2022/01/28 06:59:57;;;;;;;5.60;0.80;;;-1.00;99.90;;;;;;5071074;28;20123;-73
2022/01/28 07:02:23;;;;;;;4.40;1.00;;;-1.10;99.90;;;;;;5074679;28;20371;-74
2022/01/28 07:04:50;;;;;;;1.23;0.95;;;-1.10;99.90;;;;;;5075017;28;20533;-73
2022/01/28 07:07:16;;;;;;;1.20;0.75;;;-1.10;99.90;;;;;;5074943;28;20023;-75
2022/01/28 07:09:42;;;;;;;0.98;0.80;;;-0.90;99.90;;;;;;5074741;28;20032;-75
2022/01/28 07:12:08;;;;;;;2.70;0.73;;;-0.90;99.90;;;;;;5074748;28;20028;-75
2022/01/28 07:14:34;;;;;;;1.55;0.90;;;-1.00;99.90;;;;;;5074724;28;20032;-70
2022/01/28 07:16:59;;;;;;;3.83;0.93;;;-1.10;99.90;;;;;;5074751;28;20483;-77
2022/01/28 07:19:25;;;;;;;1.33;0.90;;;-1.10;99.90;;;;;;5074725;28;20108;-81
2022/01/28 07:21:51;;;;;;;25.75;8.15;;;-1.10;99.90;;;;;;5075038;28;20471;-81
2022/01/28 07:24:17;;;;;;;2.75;1.50;;;-1.20;99.90;;;;;;5074893;28;20035;-77
2022/01/28 07:26:42;;;;;;;2.65;1.60;;;-1.20;99.90;;;;;;5073484;28;20028;-75
2022/01/28 07:29:10;;;;;;;2.00;1.10;;;-1.20;99.90;;;;;;5074495;28;20032;-75
2022/01/28 07:31:38;;;;;;;4.20;2.10;;;-1.20;99.90;;;;;;5074672;28;20025;-74
2022/01/28 07:34:04;;;;;;;0.88;0.88;;;-1.30;99.90;;;;;;5073139;28;20042;-72
2022/01/28 07:36:29;;;;;;;1.13;0.80;;;-1.30;99.90;;;;;;5074309;28;20527;-72
2022/01/28 07:38:55;;;;;;;1.83;1.00;;;-1.30;99.90;;;;;;5074383;28;20032;-72
2022/01/28 07:41:21;;;;;;;3.13;0.88;;;-1.30;99.90;;;;;;5056329;28;20115;-71
2022/01/28 07:43:48;;;;;;;1.40;0.90;;;-1.30;99.90;;;;;;5074156;28;20035;-71
2022/01/28 07:46:14;;;;;;;2.90;1.13;;;-1.40;99.90;;;;;;5074118;28;20546;-70
2022/01/28 07:48:40;;;;;;;3.35;1.00;;;-1.40;99.90;;;;;;5074437;28;20325;-71
2022/01/28 07:51:06;;;;;;;4.47;1.00;;;-1.40;99.90;;;;;;5074162;28;20031;-69
2022/01/28 07:53:32;;;;;;;2.00;0.80;;;-1.40;99.90;;;;;;5074148;28;20020;-71
2022/01/28 07:55:58;;;;;;;2.20;1.00;;;-1.40;99.90;;;;;;5074256;28;20032;-70
2022/01/28 07:58:23;;;;;;;4.80;0.80;;;-1.40;99.90;;;;;;5073955;28;20121;-71
2022/01/28 08:00:49;;;;;;;2.72;0.90;;;-0.60;99.90;;;;;;5074019;28;20035;-71
2022/01/28 08:03:15;;;;;;;3.13;1.30;;;-0.60;99.90;;;;;;5073736;28;20036;-73
2022/01/28 08:05:41;;;;;;;3.90;0.90;;;-0.80;99.90;;;;;;5073688;28;20028;-71
2022/01/28 08:08:08;;;;;;;4.63;1.10;;;-1.00;99.90;;;;;;5072152;28;20064;-71
2022/01/28 08:10:35;;;;;;;1.02;0.70;;;-1.10;99.90;;;;;;5072547;28;20032;-71
2022/01/28 08:13:03;;;;;;;3.15;0.98;;;-1.30;99.90;;;;;;5072640;28;20028;-71
2022/01/28 08:15:29;;;;;;;3.10;1.02;;;-1.30;99.90;;;;;;5069968;28;20009;-72
2022/01/28 08:17:55;;;;;;;1.23;1.00;;;-1.30;99.90;;;;;;5073300;28;20099;-71
2022/01/28 08:20:21;;;;;;;1.33;0.88;;;-1.40;99.90;;;;;;5073214;28;20120;-71
2022/01/28 08:22:52;;;;;;;2.17;0.80;;;-1.40;99.90;;;;;;5073523;28;20103;-70
2022/01/28 08:25:20;;;;;;;3.40;1.00;;;-1.40;99.90;;;;;;5071766;28;20028;-71
2022/01/28 08:27:47;;;;;;;1.80;1.08;;;-1.40;99.90;;;;;;5073234;28;20032;-74
2022/01/28 08:30:15;;;;;;;3.42;1.15;;;-1.40;99.90;;;;;;5073084;28;20031;-75
2022/01/28 08:32:41;;;;;;;5.85;3.85;;;-1.40;99.90;;;;;;5073096;28;20070;-75
2022/01/28 08:35:08;;;;;;;2.50;1.00;;;-1.40;99.90;;;;;;5072858;28;20074;-75
2022/01/28 08:37:33;;;;;;;1.48;0.95;;;-1.40;99.90;;;;;;5072133;28;20045;-76
2022/01/28 08:40:00;;;;;;;5.88;1.10;;;-1.50;99.90;;;;;;5072296;28;20599;-71
2022/01/28 08:42:26;;;;;;;2.50;1.00;;;-1.40;99.90;;;;;;5071761;28;20031;-76
2022/01/28 08:44:52;;;;;;;1.30;0.90;;;-1.40;99.90;;;;;;5070006;28;20119;-75
2022/01/28 08:47:18;;;;;;;4.90;1.98;;;-1.40;99.90;;;;;;5072945;28;20131;-74
2022/01/28 08:49:43;;;;;;;2.22;1.20;;;1.00;99.90;;;;;;5073259;28;20054;-73
2022/01/28 08:52:09;;;;;;;1.63;0.82;;;3.60;99.90;;;;;;5073072;28;20052;-74
2022/01/28 08:54:35;;;;;;;2.33;0.90;;;2.60;99.90;;;;;;5072716;28;20081;-73
2022/01/28 08:57:01;;;;;;;2.88;0.80;;;1.30;99.90;;;;;;5072811;28;20024;-73
2022/01/28 08:59:26;;;;;;;1.50;0.80;;;0.70;99.90;;;;;;5072711;28;20029;-73
2022/01/28 09:01:52;;;;;;;2.67;0.82;;;0.10;99.90;;;;;;5072805;28;20451;-73
2022/01/28 09:04:18;;;;;;;0.55;0.55;;;-0.30;99.90;;;;;;5072442;28;20522;-73
2022/01/28 09:06:45;;;;;;;1.55;0.80;;;-0.60;99.90;;;;;;5071534;28;20028;-73
2022/01/28 09:09:11;;;;;;;1.70;1.30;;;-0.70;99.90;;;;;;5072345;28;20118;-73
2022/01/28 09:14:22;;;;;;;4.65;0.90;;;-0.90;99.90;;;;;;5072524;28;20025;-73
2022/01/28 09:16:48;;;;;;;2.25;0.90;;;-1.00;99.90;;;;;;5072583;28;20017;-73
2022/01/28 09:19:14;;;;;;;1.00;1.00;;;-1.00;99.90;;;;;;5072475;28;20037;-73
2022/01/28 09:21:40;;;;;;;3.15;1.02;;;-1.10;99.90;;;;;;5072475;28;20032;-73
2022/01/28 09:24:06;;;;;;;0.80;0.80;;;-1.20;99.90;;;;;;5072310;28;20063;-73
2022/01/28 09:26:32;;;;;;;1.45;0.90;;;-1.20;99.90;;;;;;5071173;28;20024;-73
2022/01/28 09:28:58;;;;;;;5.07;0.80;;;-1.20;99.90;;;;;;5072393;28;20583;-73
2022/01/28 09:31:23;;;;;;;1.80;0.80;;;-1.20;99.90;;;;;;5071066;28;20303;-73
2022/01/28 09:33:49;;;;;;;1.30;0.90;;;-1.20;99.90;;;;;;5072537;28;20027;-73
2022/01/28 09:36:15;;;;;;;2.97;0.90;;;-1.30;99.90;;;;;;5072174;28;20028;-73
2022/01/28 09:38:41;;;;;;;2.58;0.90;;;-1.30;99.90;;;;;;5072360;28;20041;-71
2022/01/28 09:41:09;;;;;;;1.63;0.80;;;-0.50;99.90;;;;;;5072185;28;20080;-73
2022/01/28 09:43:35;;;;;;;1.95;1.00;;;1.90;99.90;;;;;;5072074;28;20016;-71
2022/01/28 09:46:03;;;;;;;2.70;1.52;;;3.50;99.90;;;;;;5072367;28;20028;-70
2022/01/28 09:48:30;;;;;;;4.13;2.53;;;4.00;99.90;;;;;;5071985;28;20016;-76
2022/01/28 09:51:00;;;;;;;8.10;3.20;;;2.80;99.90;;;;;;5070740;28;20033;-71
2022/01/28 09:53:27;;;;;;;1.02;0.88;;;1.90;99.90;;;;;;5071855;28;20032;-75
2022/01/28 09:55:52;;;;;;;1.00;0.70;;;3.30;99.90;;;;;;5053492;28;20082;-74
2022/01/28 09:58:19;;;;;;;1.05;0.73;;;2.60;99.90;;;;;;5071293;28;20105;-74
2022/01/28 10:00:45;;;;;;;1.45;1.20;;;1.70;99.90;;;;;;5072070;28;20103;-74
2022/01/28 10:03:13;;;;;;;1.60;0.77;;;1.00;99.90;;;;;;5072023;28;20052;-74
2022/01/28 10:05:42;;;;;;;2.40;0.70;;;0.50;99.90;;;;;;5071645;28;20059;-74
2022/01/28 10:08:12;;;;;;;2.67;1.00;;;0.10;99.90;;;;;;5071979;28;20093;-79
2022/01/28 10:10:53;;;;;;;1.13;0.95;;;-0.20;99.90;;;;;;5072197;28;20486;-74
2022/01/28 10:13:36;;;;;;;1.52;0.60;;;-0.30;99.90;;;;;;5070790;28;20387;-74
2022/01/28 10:16:12;;;;;;;2.63;0.82;;;-0.50;99.90;;;;;;5070690;28;20356;-74
2022/01/28 10:18:54;;;;;;;1.73;0.93;;;-0.60;99.90;;;;;;5067684;28;20025;-74
2022/01/28 10:21:30;;;;;;;0.70;0.70;;;-0.70;99.90;;;;;;5051195;28;20032;-74
2022/01/28 10:24:14;;;;;;;0.82;0.60;;;-0.80;99.90;;;;;;5051328;28;20029;-74
2022/01/28 10:26:42;;;;;;;4.07;1.10;;;-0.80;99.90;;;;;;5058283;28;20057;-74
2022/01/28 10:29:09;;;;;;;1.73;0.80;;;-0.80;99.90;;;;;;5053153;28;20032;-75
2022/01/28 10:31:44;;;;;;;2.33;0.73;;;-0.60;99.90;;;;;;5051332;28;20060;-74
2022/01/28 10:34:29;;;;;;;2.67;0.70;;;-0.50;99.90;;;;;;5065822;28;20028;-74
2022/01/28 10:37:19;;;;;;;3.92;0.98;;;-0.30;99.90;;;;;;5072489;28;20123;-74
2022/01/28 10:39:47;;;;;;;;;;;-0.40;99.90;;;;;;5075490;28;20048;-74
2022/01/28 10:42:20;;;;;;;1.08;0.73;;;-0.60;99.90;;;;;;5075527;28;20317;-74
2022/01/28 10:45:01;;;;;;;0.80;0.80;;;-0.80;99.90;;;;;;5072342;28;20036;-74
2022/01/28 10:47:36;;;;;;;2.15;0.90;;;-1.00;99.90;;;;;;5073379;28;20034;-74
2022/01/28 10:50:23;;;;;;;1.00;0.90;;;-1.10;99.90;;;;;;5075298;28;20060;-74
2022/01/28 10:53:06;;;;;;;2.50;0.82;;;-1.10;99.90;;;;;;5074197;28;20376;-74
2022/01/28 10:55:33;;;;;;;0.85;0.77;;;-1.20;99.90;;;;;;5075587;28;20476;-74
2022/01/28 10:58:02;;;;;;;1.30;0.85;;;-1.20;99.90;;;;;;5074853;28;20103;-71
2022/01/28 11:00:37;;;;;;;3.15;0.88;;;-1.20;99.90;;;;;;5074672;28;20025;-70
2022/01/28 11:03:06;;;;;;;2.42;0.80;;;-1.20;99.90;;;;;;5074715;28;20392;-79
2022/01/28 11:05:34;;;;;;;1.75;0.75;;;-0.50;99.90;;;;;;5074670;28;20037;-75
2022/01/28 11:08:01;;;;;;;1.25;0.70;;;-0.40;99.90;;;;;;5075071;28;20025;-77
2022/01/28 11:10:28;;;;;;;1.23;0.85;;;-0.50;99.90;;;;;;5064801;28;20071;-77
2022/01/28 11:12:54;;;;;;;2.15;0.90;;;-0.70;99.90;;;;;;5068839;28;20021;-77
2022/01/28 11:15:22;;;;;;;0.75;0.68;;;-0.90;99.90;;;;;;5071771;28;20078;-71
2022/01/28 11:17:49;;;;;;;1.00;0.70;;;-1.00;99.90;;;;;;5068202;28;20016;-70
2022/01/28 11:20:20;;;;;;;0.60;0.60;;;-1.00;99.90;;;;;;5073042;28;20422;-69
2022/01/28 11:23:33;;;;;;;1.98;0.88;;;-1.20;99.90;;;;;;5067068;28;20077;-69
2022/01/28 11:26:23;;;;;;;1.60;1.13;;;-1.30;99.90;;;;;;5063201;28;20033;-70
2022/01/28 11:28:52;;;;;;;0.75;0.75;;;-1.30;99.90;;;;;;5074145;28;20471;-71
2022/01/28 11:31:39;;;;;;;2.00;0.80;;;-1.30;99.90;;;;;;5067840;28;20032;-69
2022/01/28 11:34:17;;;;;;;2.08;0.80;;;-1.30;99.90;;;;;;5073247;28;20051;-69
2022/01/28 11:36:42;;;;;;;0.70;0.55;;;-1.30;99.90;;;;;;5074513;28;20051;-69
2022/01/28 11:39:27;;;;;;;2.65;0.80;;;-1.40;99.90;;;;;;5074575;28;20028;-69
2022/01/28 11:42:06;;;;;;;2.25;0.80;;;-1.40;99.90;;;;;;5073276;28;20471;-69
2022/01/28 11:44:50;;;;;;;2.05;0.75;;;-1.50;99.90;;;;;;5074362;28;20029;-69
2022/01/28 11:47:26;;;;;;;0.70;0.70;;;-1.50;99.90;;;;;;5072782;28;20106;-70
2022/01/28 11:49:53;;;;;;;1.35;0.82;;;-1.50;99.90;;;;;;5074368;28;20028;-70
2022/01/28 11:52:44;;;;;;;2.03;0.70;;;-1.50;99.90;;;;;;5074211;28;20025;-69
2022/01/28 11:55:28;;;;;;;2.33;1.27;;;-1.50;99.90;;;;;;5071269;28;20036;-70
2022/01/28 11:57:54;;;;;;;1.52;0.80;;;-1.40;99.90;;;;;;5074255;28;20040;-70
2022/01/28 12:00:30;;;;;;;3.97;1.05;;;-1.40;99.90;;;;;;5073958;28;20077;-69
2022/01/28 12:02:56;;;;;;;1.45;0.75;;;-1.40;99.90;;;;;;5074188;28;20099;-69
2022/01/28 12:05:31;;;;;;;1.45;0.80;;;-1.40;99.90;;;;;;5073889;28;20387;-70
2022/01/28 12:08:03;;;;;;;0.85;0.80;;;-1.40;99.90;;;;;;5074145;28;20082;-70
2022/01/28 12:10:32;;;;;;;0.98;0.90;;;-1.40;99.90;;;;;;5073619;28;20055;-70
2022/01/28 12:13:01;;;;;;;0.82;0.82;;;-1.40;99.90;;;;;;5074161;28;20056;-70
2022/01/28 12:15:29;;;;;;;1.40;0.80;;;-1.50;99.90;;;;;;5073694;28;20052;-69
2022/01/28 12:18:11;;;;;;;2.75;1.10;;;-1.50;99.90;;;;;;5073821;28;20025;-71
2022/01/28 12:20:38;;;;;;;0.90;0.90;;;-1.50;99.90;;;;;;5073459;28;20035;-71
2022/01/28 12:23:25;;;;;;;4.93;1.10;;;-1.40;99.90;;;;;;5073425;28;20070;-75
2022/01/28 12:25:55;;;;;;;0.82;0.70;;;-1.50;99.90;;;;;;5071470;28;20450;-72
2022/01/28 12:28:41;;;;;;;1.38;0.90;;;-1.50;99.90;;;;;;5073439;28;20071;-73
2022/01/28 12:31:17;;;;;;;3.10;0.80;;;-1.50;99.90;;;;;;5071733;28;20035;-72
2022/01/28 12:33:45;;;;;;;1.98;0.70;;;-0.30;99.90;;;;;;5073135;28;20017;-72
2022/01/28 12:36:16;;;;;;;0.80;0.65;;;-0.40;99.90;;;;;;5073349;28;20052;-72
2022/01/28 12:38:58;;;;;;;3.00;0.90;;;-0.80;99.90;;;;;;5072965;28;20552;-71
2022/01/28 12:41:25;;;;;;;1.20;0.65;;;-1.10;99.90;;;;;;5073128;28;20068;-72
2022/01/28 12:43:51;;;;;;;1.02;0.70;;;-1.30;99.90;;;;;;5070450;28;20384;-72
2022/01/28 12:46:18;;;;;;;2.08;0.70;;;-0.70;99.90;;;;;;5072767;28;20028;-72
2022/01/28 12:48:51;;;;;;;2.50;1.00;;;-0.50;99.90;;;;;;5072997;28;20028;-72
2022/01/28 12:51:21;;;;;;;2.75;0.80;;;-0.60;99.90;;;;;;5072705;28;20031;-72
2022/01/28 12:53:54;;;;;;;2.17;0.80;;;-0.70;99.90;;;;;;5073121;28;20055;-72
2022/01/28 12:56:39;;;;;;;2.70;1.02;;;-0.90;99.90;;;;;;5072764;28;20031;-76
2022/01/28 12:59:05;;;;;;;0.73;0.70;;;-0.80;99.90;;;;;;5072364;28;20035;-71
2022/01/28 13:01:31;;;;;;;3.90;0.90;;;-0.60;99.90;;;;;;5070379;28;20036;-71
2022/01/28 13:04:16;;;;;;;1.00;0.65;;;-0.20;99.90;;;;;;5070998;28;20028;-71
2022/01/28 13:09:33;;;;;;;1.50;0.80;;;-0.50;99.90;;;;;;5047249;28;20037;-76
2022/01/28 13:12:02;;;;;;;0.98;0.80;;;-0.80;99.90;;;;;;5072132;28;20020;-70
2022/01/28 13:14:30;;;;;;;3.78;0.70;;;-1.00;99.90;;;;;;5071833;28;20571;-70
2022/01/28 13:16:56;;;;;;;2.00;0.85;;;-1.20;99.90;;;;;;5072023;28;20471;-74
2022/01/28 13:19:23;;;;;;;0.80;0.80;;;-1.40;99.90;;;;;;5077093;28;20029;-73
2022/01/28 13:21:50;;;;;;;1.50;0.80;;;-1.50;99.90;;;;;;5072576;28;20032;-75
2022/01/28 13:24:18;;;;;;;2.38;0.80;;;-1.60;99.90;;;;;;5069122;28;20107;-74
2022/01/28 13:27:00;;;;;;;1.50;0.90;;;-1.70;99.90;;;;;;5071075;28;20514;-74
2022/01/28 13:29:35;;;;;;;1.55;0.98;;;-1.70;99.90;;;;;;5069320;28;20031;-73
2022/01/28 13:32:04;;;;;;;2.67;1.23;;;-1.80;99.90;;;;;;5071929;28;20082;-73
2022/01/28 13:34:55;;;;;;;4.93;1.42;;;-1.90;99.90;;;;;;5059502;28;20078;-75
2022/01/28 13:37:42;;;;;;;1.42;0.98;;;-1.90;99.90;;;;;;5065701;28;20041;-74
2022/01/28 13:40:17;;;;;;;2.22;1.17;;;-2.00;99.90;;;;;;5067361;28;20133;-74
2022/01/28 13:43:13;;;;;;;2.47;1.30;;;-2.10;99.90;;;;;;5071692;28;20078;-73
2022/01/28 13:45:58;;;;;;;5.72;1.17;;;-2.20;99.90;;;;;;5064162;28;20032;-70
2022/01/28 13:48:33;;;;;;;2.75;0.98;;;-2.30;99.90;;;;;;5068226;28;20052;-69
2022/01/28 13:51:09;;;;;;;2.85;1.02;;;-2.30;99.90;;;;;;5071293;28;20097;-69
2022/01/28 13:56:28;;;;;;;4.38;1.42;;;-2.30;99.90;;;;;;5068888;28;20495;-69
2022/01/28 13:58:54;;;;;;;1.90;0.93;;;-2.10;99.90;;;;;;5069027;28;20093;-69
2022/01/28 14:01:22;;;;;;;2.17;0.80;;;-2.20;99.90;;;;;;5071211;28;20036;-70
2022/01/28 14:03:59;;;;;;;2.45;0.98;;;-2.30;99.90;;;;;;5071162;28;20104;-69
2022/01/28 14:06:33;;;;;;;2.22;1.10;;;-2.40;99.90;;;;;;5065523;28;20035;-70
2022/01/28 14:09:07;;;;;;;4.30;1.00;;;-2.40;99.90;;;;;;5065889;28;20021;-69
2022/01/28 14:11:38;;;;;;;1.08;0.88;;;-2.50;99.90;;;;;;5062457;28;20422;-69
2022/01/28 14:14:12;;;;;;;2.78;0.90;;;-2.50;99.90;;;;;;5071089;28;20438;-69
2022/01/28 14:16:38;;;;;;;1.80;0.93;;;-2.60;99.90;;;;;;5070979;28;20036;-69
2022/01/28 14:19:04;;;;;;;3.95;0.90;;;-2.60;99.90;;;;;;5071084;28;20024;-70
2022/01/28 14:21:30;;;;;;;1.90;0.90;;;-2.60;99.90;;;;;;5071147;28;20384;-69
2022/01/28 14:23:56;;;;;;;1.58;0.93;;;-2.70;99.90;;;;;;5071038;28;20382;-70
2022/01/28 14:26:21;;;;;;;3.92;2.47;;;-2.70;99.90;;;;;;5070671;28;20036;-70
2022/01/28 14:31:24;;;;;;;2.40;0.90;;;-2.70;99.90;;;;;;5070645;28;20143;-70
2022/01/28 14:33:50;;;;;;;3.38;1.00;;;-2.70;99.90;;;;;;5070845;28;20024;-70
2022/01/28 14:36:16;;;;;;;5.43;1.27;;;-2.70;99.90;;;;;;5071106;28;20078;-70
2022/01/28 14:38:49;;;;;;;1.08;0.85;;;-2.80;99.90;;;;;;5070307;28;20068;-69
2022/01/28 14:41:16;;;;;;;1.05;0.95;;;-2.80;99.90;;;;;;5070808;28;20071;-69
2022/01/28 14:43:42;;;;;;;3.78;0.98;;;-2.80;99.90;;;;;;5070860;28;20036;-70
2022/01/28 14:46:08;;;;;;;5.00;1.27;;;-2.80;99.90;;;;;;5070785;28;20055;-70
2022/01/28 14:48:34;;;;;;;3.63;1.08;;;-2.80;99.90;;;;;;5069708;28;20040;-70
2022/01/28 14:51:00;;;;;;;2.28;1.00;;;-2.90;99.90;;;;;;5070806;28;20020;-70
2022/01/28 14:53:26;;;;;;;2.92;1.05;;;-3.00;99.90;;;;;;5068161;28;20466;-70
2022/01/28 14:55:52;;;;;;;2.15;1.00;;;-3.10;99.90;;;;;;5070648;28;20099;-72
2022/01/28 14:58:17;;;;;;;1.88;0.88;;;-3.30;99.90;;;;;;5070913;28;20040;-72
2022/01/28 15:00:43;;;;;;;5.53;1.20;;;-3.30;99.90;;;;;;5069250;28;20032;-72
2022/01/28 15:03:12;;;;;;;2.67;1.13;;;-3.30;99.90;;;;;;5070752;28;20017;-72
2022/01/28 15:05:39;;;;;;;0.98;0.90;;;-3.30;99.90;;;;;;5070591;28;20028;-73
2022/01/28 15:08:09;;;;;;;1.73;1.15;;;-3.40;99.90;;;;;;5070717;28;20020;-72
2022/01/28 15:10:35;;;;;;;;;;;-3.40;99.90;;;;;;5071332;28;20467;-72
2022/01/28 15:13:01;;;;;;;5.45;1.08;;;-3.50;99.90;;;;;;5070524;28;19908;-72
2022/01/28 15:15:28;;;;;;;2.25;1.05;;;-3.50;99.90;;;;;;5069051;28;20403;-72
2022/01/28 15:17:54;;;;;;;3.05;0.90;;;-3.00;99.90;;;;;;5070528;28;20548;-77
2022/01/28 15:20:20;;;;;;;3.55;1.40;;;-2.90;99.90;;;;;;5067506;28;20404;-72
2022/01/28 15:22:46;;;;;;;3.60;1.20;;;-3.10;99.90;;;;;;5058932;28;20017;-81
2022/01/28 15:25:11;;;;;;;2.88;1.00;;;-3.20;99.90;;;;;;5064155;28;20028;-74
2022/01/28 15:27:37;;;;;;;1.42;0.90;;;-3.30;99.90;;;;;;5065651;28;20050;-75
2022/01/28 15:30:09;;;;;;;2.33;1.13;;;-3.30;99.90;;;;;;5069091;28;20020;-71
2022/01/28 15:36:01;;;;;;;2.38;1.00;;;-3.30;99.90;;;;;;5073226;28;20032;-70
2022/01/28 15:38:08;;;;;;;2.28;1.08;;;-3.30;99.90;;;;;;5062950;28;20055;-70